createdAt,value
2023-04-17T00:01:13.101Z,4.00
2023-04-17T00:04:14.933Z,2.40
2023-04-17T00:07:16.622Z,3.30
2023-04-17T00:10:18.508Z,2.30
2023-04-17T00:13:20.111Z,2.40
2023-04-17T00:16:21.757Z,3.90
2023-04-17T00:19:23.423Z,3.80
2023-04-17T00:22:25.302Z,2.30
2023-04-17T00:25:26.857Z,5.90
2023-04-17T00:28:28.479Z,3.30
2023-04-17T00:31:30.462Z,2.60
2023-04-17T00:34:32.085Z,2.90
2023-04-17T00:37:33.745Z,3.50
2023-04-17T00:40:36.046Z,3.30
2023-04-17T00:43:39.049Z,3.00
2023-04-17T00:46:41.038Z,3.80
2023-04-17T00:49:42.724Z,3.30
2023-04-17T00:52:45.258Z,2.40
2023-04-17T00:55:48.343Z,2.30
2023-04-17T00:58:50.574Z,2.80
2023-04-17T01:01:52.184Z,3.00
2023-04-17T01:04:53.996Z,2.80
2023-04-17T01:07:57.215Z,2.50
2023-04-17T01:10:58.774Z,2.20
2023-04-17T01:14:00.330Z,3.50
2023-04-17T01:17:02.374Z,2.80
2023-04-17T01:20:09.114Z,3.00
2023-04-17T01:23:11.631Z,2.40
2023-04-17T01:26:23.184Z,3.60
2023-04-17T01:29:25.027Z,2.80
2023-04-17T01:32:27.175Z,3.70
2023-04-17T01:35:28.903Z,3.90
2023-04-17T01:38:30.776Z,2.50
2023-04-17T01:41:32.321Z,1.90
2023-04-17T01:44:34.099Z,2.80
2023-04-17T01:47:36.017Z,2.80
2023-04-17T01:50:37.833Z,2.10
2023-04-17T01:53:40.002Z,2.40
2023-04-17T01:56:42.491Z,1.90
2023-04-17T01:59:44.085Z,2.00
2023-04-17T02:02:45.929Z,1.90
2023-04-17T02:05:47.696Z,2.30
2023-04-17T02:08:49.344Z,1.90
2023-04-17T02:11:51.126Z,1.90
2023-04-17T02:14:53.797Z,2.50
2023-04-17T02:17:55.424Z,2.90
2023-04-17T02:20:57.177Z,1.80
2023-04-17T02:23:58.738Z,2.80
2023-04-17T02:30:05.099Z,1.90
2023-04-17T02:33:07.440Z,1.80
2023-04-17T02:36:09.397Z,2.80
2023-04-17T02:39:13.835Z,2.80
2023-04-17T02:42:16.638Z,2.70
2023-04-17T02:45:18.229Z,1.90
2023-04-17T02:48:19.899Z,1.80
2023-04-17T02:51:21.531Z,3.90
2023-04-17T02:54:23.213Z,4.50
2023-04-17T02:57:25.708Z,2.60
2023-04-17T03:00:28.432Z,2.30
2023-04-17T03:03:35.221Z,1.70
2023-04-17T03:06:38.270Z,1.80
2023-04-17T03:09:39.856Z,2.70
2023-04-17T03:12:41.689Z,2.30
2023-04-17T03:15:43.399Z,1.70
2023-04-17T03:18:44.998Z,2.50
2023-04-17T03:21:46.931Z,2.20
2023-04-17T03:24:48.593Z,3.30
2023-04-17T03:27:50.269Z,2.00
2023-04-17T03:30:55.022Z,2.60
2023-04-17T03:33:57.019Z,1.70
2023-04-17T03:36:59.479Z,2.30
2023-04-17T03:40:01.464Z,2.20
2023-04-17T03:43:03.452Z,1.30
2023-04-17T03:46:06.383Z,1.20
2023-04-17T03:49:08.139Z,1.60
2023-04-17T03:52:09.996Z,1.10
2023-04-17T03:55:12.273Z,1.30
2023-04-17T03:58:14.949Z,1.60
2023-04-17T04:01:16.670Z,1.50
2023-04-17T04:04:34.157Z,1.60
2023-04-17T04:07:43.166Z,1.90
2023-04-17T04:10:46.250Z,1.40
2023-04-17T04:13:52.279Z,1.70
2023-04-17T04:16:54.121Z,1.40
2023-04-17T04:19:55.844Z,1.90
2023-04-17T04:22:59.378Z,1.30
2023-04-17T04:26:02.127Z,1.30
2023-04-17T04:29:13.943Z,1.20
2023-04-17T04:32:25.632Z,1.70
2023-04-17T04:35:30.309Z,1.60
2023-04-17T04:38:32.734Z,1.30
2023-04-17T04:41:46.402Z,1.30
2023-04-17T04:44:48.498Z,2.20
2023-04-17T04:47:51.186Z,2.20
2023-04-17T04:50:53.154Z,1.50
2023-04-17T04:53:54.789Z,1.90
2023-04-17T04:56:56.994Z,2.40
2023-04-17T04:59:58.853Z,1.90
2023-04-17T05:03:08.184Z,2.00
2023-04-17T05:06:11.282Z,2.90
2023-04-17T05:09:17.079Z,1.90
2023-04-17T05:12:19.697Z,1.40
2023-04-17T05:15:21.376Z,1.50
2023-04-17T05:18:23.244Z,1.40
2023-04-17T05:21:25.283Z,1.60
2023-04-17T05:24:27.053Z,1.40
2023-04-17T05:27:29.016Z,3.50
2023-04-17T05:30:31.051Z,1.50
2023-04-17T05:33:42.154Z,2.80
2023-04-17T05:36:43.752Z,1.60
2023-04-17T05:39:45.461Z,2.00
2023-04-17T05:42:46.969Z,1.70
2023-04-17T05:45:49.094Z,1.80
2023-04-17T05:48:51.225Z,2.30
2023-04-17T05:51:53.301Z,1.90
2023-04-17T05:54:55.337Z,1.60
2023-04-17T05:57:58.250Z,1.90
2023-04-17T06:01:00.285Z,3.80
2023-04-17T06:04:03.054Z,9.90
2023-04-17T06:07:06.268Z,4.00
2023-04-17T06:10:11.751Z,4.50
2023-04-17T06:13:13.523Z,4.00
2023-04-17T06:16:18.514Z,4.70
2023-04-17T06:19:22.511Z,2.80
2023-04-17T06:22:24.187Z,3.00
2023-04-17T06:25:25.953Z,2.90
2023-04-17T06:28:27.520Z,2.00
2023-04-17T06:31:29.846Z,2.50
2023-04-17T06:34:32.100Z,3.50
2023-04-17T06:37:33.959Z,3.10
2023-04-17T06:40:35.674Z,2.50
2023-04-17T06:43:39.621Z,4.40
2023-04-17T06:46:51.724Z,1.70
2023-04-17T06:49:53.331Z,3.50
2023-04-17T06:52:55.085Z,2.40
2023-04-17T06:55:56.669Z,3.90
2023-04-17T06:58:58.502Z,4.60
2023-04-17T07:02:00.597Z,4.90
2023-04-17T07:05:06.495Z,2.30
2023-04-17T07:08:08.071Z,4.80
2023-04-17T07:11:09.709Z,4.00
2023-04-17T07:14:12.900Z,2.60
2023-04-17T07:17:14.699Z,1.80
2023-04-17T07:20:16.608Z,4.60
2023-04-17T07:23:18.278Z,1.50
2023-04-17T07:26:19.917Z,1.60
2023-04-17T07:29:21.561Z,2.10
2023-04-17T07:32:24.754Z,1.80
2023-04-17T07:35:26.439Z,2.00
2023-04-17T07:38:28.049Z,2.70
2023-04-17T07:41:29.657Z,2.70
2023-04-17T07:44:31.413Z,3.00
2023-04-17T07:47:32.997Z,2.70
2023-04-17T07:50:34.534Z,1.40
2023-04-17T07:53:37.328Z,2.30
2023-04-17T07:56:40.018Z,2.30
2023-04-17T07:59:41.638Z,3.60
2023-04-17T08:02:43.639Z,3.00
2023-04-17T08:05:45.375Z,3.10
2023-04-17T08:08:47.713Z,3.40
2023-04-17T08:11:57.044Z,3.90
2023-04-17T08:14:59.849Z,6.20
2023-04-17T08:18:01.834Z,3.90
2023-04-17T08:21:04.346Z,3.60
2023-04-17T08:24:06.299Z,4.40
2023-04-17T08:27:08.075Z,3.80
2023-04-17T08:30:13.483Z,4.60
2023-04-17T08:33:18.223Z,3.80
2023-04-17T08:36:19.816Z,2.60
2023-04-17T08:39:21.409Z,3.00
2023-04-17T08:42:23.498Z,3.70
2023-04-17T08:45:25.388Z,5.70
2023-04-17T08:48:27.250Z,4.10
2023-04-17T08:51:28.906Z,3.10
2023-04-17T08:54:31.827Z,9.20
2023-04-17T08:57:33.442Z,3.00
2023-04-17T09:00:40.175Z,6.20
2023-04-17T09:03:43.197Z,6.20
2023-04-17T09:06:54.665Z,9.70
2023-04-17T09:09:56.973Z,3.50
2023-04-17T09:13:00.353Z,4.50
2023-04-17T09:16:08.476Z,4.30
2023-04-17T09:19:11.068Z,3.50
2023-04-17T09:22:22.721Z,2.80
2023-04-17T09:25:26.346Z,3.40
2023-04-17T09:31:34.870Z,5.90
2023-04-17T09:34:40.911Z,3.50
2023-04-17T09:37:52.317Z,3.50
2023-04-17T09:40:53.913Z,6.70
2023-04-17T09:44:05.529Z,3.10
2023-04-17T09:47:08.193Z,3.10
2023-04-17T09:50:09.996Z,4.80
2023-04-17T09:53:11.649Z,4.30
2023-04-17T09:56:13.696Z,3.30
2023-04-17T09:59:16.205Z,3.90
2023-04-17T10:02:19.409Z,3.20
2023-04-17T10:05:22.580Z,2.40
2023-04-17T10:08:24.234Z,2.80
2023-04-17T10:11:30.225Z,3.20
2023-04-17T10:14:33.510Z,2.50
2023-04-17T10:17:35.457Z,2.10
2023-04-17T10:20:38.837Z,2.60
2023-04-17T10:23:40.524Z,2.40
2023-04-17T10:26:42.139Z,2.90
2023-04-17T10:29:58.094Z,4.40
2023-04-17T10:33:20.640Z,3.40
2023-04-17T10:36:40.590Z,3.40
2023-04-17T10:39:51.582Z,2.00
2023-04-17T10:43:17.912Z,2.30
2023-04-17T10:46:19.569Z,3.50
2023-04-17T10:49:21.562Z,3.00
2023-04-17T10:52:32.657Z,2.70
2023-04-17T10:55:34.278Z,2.30
2023-04-17T10:58:38.328Z,1.50
2023-04-17T11:01:49.208Z,1.40
2023-04-17T11:05:06.384Z,1.80
2023-04-17T11:08:08.046Z,1.40
2023-04-17T11:11:12.717Z,1.40
2023-04-17T11:14:18.979Z,2.00
2023-04-17T11:17:21.547Z,2.20
2023-04-17T11:20:24.832Z,1.30
2023-04-17T11:23:30.277Z,1.30
2023-04-17T11:26:31.861Z,1.50
2023-04-17T11:29:33.416Z,1.40
2023-04-17T11:32:37.886Z,1.90
2023-04-17T11:35:41.308Z,1.70
2023-04-17T11:38:49.147Z,3.70
2023-04-17T11:41:51.911Z,2.50
2023-04-17T11:44:53.496Z,2.50
2023-04-17T11:47:55.122Z,2.40
2023-04-17T11:51:01.425Z,2.30
2023-04-17T11:54:03.195Z,2.80
2023-04-17T11:57:07.105Z,2.30
2023-04-17T12:00:13.381Z,3.00
2023-04-17T12:03:37.040Z,3.10
2023-04-17T12:06:38.881Z,3.20
2023-04-17T12:09:41.035Z,3.50
2023-04-17T12:12:45.208Z,3.90
2023-04-17T12:15:46.937Z,2.60
2023-04-17T12:18:48.596Z,2.80
2023-04-17T12:21:52.057Z,2.40
2023-04-17T12:24:53.594Z,3.10
2023-04-17T12:27:57.056Z,2.50
2023-04-17T12:30:58.573Z,2.40
2023-04-17T12:34:00.408Z,2.20
2023-04-17T12:37:02.008Z,2.30
2023-04-17T12:40:04.364Z,2.30
2023-04-17T12:43:08.441Z,2.50
2023-04-17T12:46:10.146Z,3.00
2023-04-17T12:49:12.197Z,3.20
2023-04-17T12:52:13.972Z,2.20
2023-04-17T12:55:15.772Z,2.80
2023-04-17T12:58:17.416Z,2.80
2023-04-17T13:01:18.985Z,3.50
2023-04-17T13:04:21.147Z,2.70
2023-04-17T13:07:23.086Z,1.90
2023-04-17T13:10:25.287Z,3.80
2023-04-17T13:13:26.924Z,2.10
2023-04-17T13:16:28.486Z,2.60
2023-04-17T13:19:32.121Z,1.90
2023-04-17T13:22:33.793Z,2.30
2023-04-17T13:25:35.665Z,2.50
2023-04-17T13:28:37.234Z,2.60
2023-04-17T13:31:38.792Z,2.50
2023-04-17T13:34:40.486Z,2.60
2023-04-17T13:37:42.058Z,2.50
2023-04-17T13:40:43.750Z,2.60
2023-04-17T13:43:45.601Z,2.50
2023-04-17T13:46:47.336Z,3.30
2023-04-17T13:49:49.120Z,3.80
2023-04-17T13:52:51.153Z,4.30
2023-04-17T13:55:52.773Z,2.40
2023-04-17T13:58:55.030Z,2.80
2023-04-17T14:01:56.685Z,2.90
2023-04-17T14:04:58.555Z,3.30
2023-04-17T14:08:00.291Z,3.00
2023-04-17T14:11:02.067Z,2.40
2023-04-17T14:14:03.692Z,3.30
2023-04-17T14:17:05.369Z,2.60
2023-04-17T14:20:07.819Z,2.70
2023-04-17T14:23:09.390Z,3.10
2023-04-17T14:26:12.283Z,3.70
2023-04-17T14:29:14.537Z,3.40
2023-04-17T14:32:16.385Z,4.00
2023-04-17T14:35:18.061Z,4.20
2023-04-17T14:38:20.029Z,4.30
2023-04-17T14:41:21.610Z,8.60
2023-04-17T14:44:23.237Z,5.10
2023-04-17T14:47:24.962Z,3.30
2023-04-17T14:50:26.658Z,4.20
2023-04-17T14:53:28.607Z,4.50
2023-04-17T14:56:30.388Z,5.30
2023-04-17T14:59:32.197Z,5.20
2023-04-17T15:02:38.553Z,6.30
2023-04-17T15:05:40.671Z,5.60
2023-04-17T15:08:42.661Z,4.40
2023-04-17T15:11:44.336Z,4.00
2023-04-17T15:14:45.909Z,4.90
2023-04-17T15:17:47.459Z,4.90
2023-04-17T15:20:49.023Z,5.90
2023-04-17T15:23:50.667Z,4.40
2023-04-17T15:26:52.257Z,5.50
2023-04-17T15:29:53.943Z,4.90
2023-04-17T15:32:55.705Z,5.50
2023-04-17T15:35:58.734Z,6.10
2023-04-17T15:39:00.946Z,5.40
2023-04-17T15:42:02.591Z,5.80
2023-04-17T15:45:04.684Z,5.90
2023-04-17T15:48:06.458Z,6.10
2023-04-17T15:51:08.148Z,5.60
2023-04-17T15:54:11.986Z,4.40
2023-04-17T15:57:13.626Z,4.50
2023-04-17T16:00:15.690Z,6.20
2023-04-17T16:03:17.939Z,6.10
2023-04-17T16:06:20.468Z,6.40
2023-04-17T16:09:24.503Z,5.00
2023-04-17T16:12:28.128Z,5.00
2023-04-17T16:15:30.326Z,4.50
2023-04-17T16:18:31.933Z,4.80
2023-04-17T16:21:33.590Z,4.40
2023-04-17T16:24:35.234Z,4.10
2023-04-17T16:27:37.080Z,4.40
2023-04-17T16:30:38.696Z,5.20
2023-04-17T16:33:40.796Z,5.60
2023-04-17T16:36:45.356Z,4.60
2023-04-17T16:39:47.397Z,5.20
2023-04-17T16:42:49.032Z,4.80
2023-04-17T16:45:50.748Z,4.00
2023-04-17T16:48:53.452Z,3.60
2023-04-17T16:51:55.162Z,4.10
2023-04-17T16:54:56.748Z,4.10
2023-04-17T16:58:00.222Z,6.30
2023-04-17T17:04:03.515Z,7.20
2023-04-17T17:07:05.143Z,5.90
2023-04-17T17:10:07.572Z,5.90
2023-04-17T17:13:09.214Z,5.80
2023-04-17T17:16:10.832Z,4.30
2023-04-17T17:19:12.600Z,5.80
2023-04-17T17:22:14.342Z,5.00
2023-04-17T17:25:15.994Z,5.80
2023-04-17T17:28:17.616Z,5.00
2023-04-17T17:31:19.484Z,4.00
2023-04-17T17:34:26.707Z,5.40
2023-04-17T17:37:28.688Z,5.40
2023-04-17T17:40:30.410Z,7.20
2023-04-17T17:43:32.061Z,4.30
2023-04-17T17:46:35.955Z,5.70
2023-04-17T17:49:37.590Z,3.80
2023-04-17T17:52:39.245Z,6.70
2023-04-17T17:55:40.878Z,4.40
2023-04-17T17:58:42.428Z,3.80
2023-04-17T18:01:44.044Z,4.90
2023-04-17T18:04:45.714Z,4.70
2023-04-17T18:07:47.402Z,7.70
2023-04-17T18:10:48.961Z,7.80
2023-04-17T18:13:51.182Z,7.40
2023-04-17T18:16:52.945Z,10.50
2023-04-17T18:19:54.550Z,15.50
2023-04-17T18:22:56.312Z,8.40
2023-04-17T18:26:02.300Z,13.10
2023-04-17T18:29:03.962Z,5.40
2023-04-17T18:32:05.639Z,6.10
2023-04-17T18:35:07.636Z,4.50
2023-04-17T18:38:09.260Z,5.20
2023-04-17T18:41:10.869Z,5.40
2023-04-17T18:44:15.421Z,10.40
2023-04-17T18:47:17.152Z,10.50
2023-04-17T18:50:18.761Z,5.40
2023-04-17T18:53:20.384Z,5.80
2023-04-17T18:56:22.924Z,4.00
2023-04-17T18:59:26.211Z,5.70
2023-04-17T19:02:28.918Z,6.50
2023-04-17T19:05:31.099Z,6.00
2023-04-17T19:08:33.776Z,7.10
2023-04-17T19:11:35.651Z,6.70
2023-04-17T19:14:37.277Z,6.30
2023-04-17T19:17:39.439Z,7.30
2023-04-17T19:20:42.525Z,6.50
2023-04-17T19:23:44.269Z,6.70
2023-04-17T19:26:46.085Z,12.70
2023-04-17T19:29:48.811Z,7.90
2023-04-17T19:32:50.739Z,7.60
2023-04-17T19:35:53.712Z,8.40
2023-04-17T19:38:59.158Z,8.00
2023-04-17T19:42:01.529Z,6.60
2023-04-17T19:45:03.235Z,8.50
2023-04-17T19:48:05.359Z,8.60
2023-04-17T19:51:10.717Z,7.10
2023-04-17T19:54:13.791Z,7.00
2023-04-17T19:57:15.687Z,8.70
2023-04-17T20:00:17.845Z,8.00
2023-04-17T20:03:19.833Z,7.60
2023-04-17T20:06:22.930Z,7.60
2023-04-17T20:09:24.736Z,8.60
2023-04-17T20:12:26.352Z,8.60
2023-04-17T20:15:29.655Z,7.60
2023-04-17T20:18:31.618Z,7.80
2023-04-17T20:21:33.187Z,6.90
2023-04-17T20:24:35.644Z,7.80
2023-04-17T20:27:37.277Z,8.60
2023-04-17T20:30:39.545Z,7.50
2023-04-17T20:33:41.615Z,7.50
2023-04-17T20:36:43.678Z,5.50
2023-04-17T20:39:45.379Z,6.10
2023-04-17T20:42:48.248Z,7.30
2023-04-17T20:45:53.083Z,7.30
2023-04-17T20:48:54.978Z,8.20
2023-04-17T20:51:56.641Z,9.70
2023-04-17T20:54:58.500Z,8.60
2023-04-17T20:58:00.063Z,9.20
2023-04-17T21:01:02.510Z,8.70
2023-04-17T21:04:04.281Z,7.90
2023-04-17T21:07:06.099Z,7.60
2023-04-17T21:10:08.793Z,6.90
2023-04-17T21:13:10.684Z,9.10
2023-04-17T21:16:13.893Z,6.70
2023-04-17T21:19:15.765Z,8.70
2023-04-17T21:22:17.723Z,6.90
2023-04-17T21:25:19.365Z,7.50
2023-04-17T21:28:21.209Z,10.70
2023-04-17T21:31:23.544Z,8.40
2023-04-17T21:34:25.788Z,6.20
2023-04-17T21:37:27.502Z,7.60
2023-04-17T21:40:32.979Z,6.20
2023-04-17T21:43:35.522Z,6.70
2023-04-17T21:46:38.311Z,5.10
2023-04-17T21:49:39.988Z,5.40
2023-04-17T21:52:41.676Z,9.20
2023-04-17T21:55:43.316Z,8.60
2023-04-17T21:58:45.121Z,8.60
2023-04-17T22:01:46.949Z,9.10
2023-04-17T22:04:48.827Z,10.10
2023-04-17T22:07:54.783Z,9.40
2023-04-17T22:10:57.339Z,8.20
2023-04-17T22:13:59.400Z,9.60
2023-04-17T22:17:01.298Z,10.80
2023-04-17T22:20:03.491Z,6.90
2023-04-17T22:23:05.244Z,6.80
2023-04-17T22:26:07.033Z,8.90
2023-04-17T22:29:08.830Z,7.50
2023-04-17T22:32:10.636Z,6.00
2023-04-17T22:35:13.953Z,8.30
2023-04-17T22:38:16.189Z,6.80
2023-04-17T22:41:17.952Z,7.00
2023-04-17T22:44:19.746Z,14.60
2023-04-17T22:47:21.722Z,17.90
2023-04-17T22:50:23.854Z,7.10
2023-04-17T22:53:25.588Z,7.30
2023-04-17T22:56:27.462Z,6.80
2023-04-17T22:59:29.941Z,5.90
2023-04-17T23:02:31.807Z,6.50
2023-04-17T23:05:33.730Z,5.30
2023-04-17T23:08:35.526Z,6.60
2023-04-17T23:11:37.508Z,4.70
2023-04-17T23:14:39.221Z,5.90
2023-04-17T23:17:41.049Z,4.90
2023-04-17T23:20:42.875Z,6.10
2023-04-17T23:23:48.184Z,4.90
2023-04-17T23:26:50.436Z,5.20
2023-04-17T23:29:52.225Z,4.10
2023-04-17T23:32:55.052Z,5.00
2023-04-17T23:35:56.906Z,4.20
2023-04-17T23:38:58.623Z,4.00
2023-04-17T23:42:05.740Z,6.70
2023-04-17T23:45:08.459Z,7.60
2023-04-17T23:48:10.234Z,4.20
2023-04-17T23:51:11.967Z,6.00
2023-04-17T23:54:13.907Z,4.80
2023-04-17T23:57:15.870Z,4.80
